createdAt,value
2023-01-29T00:01:08.680Z,91.08
2023-01-29T00:03:36.588Z,91.09
2023-01-29T00:06:08.010Z,91.71
2023-01-29T00:08:38.924Z,91.81
2023-01-29T00:11:07.578Z,91.53
2023-01-29T00:13:35.305Z,91.56
2023-01-29T00:16:03.104Z,91.51
2023-01-29T00:18:31.178Z,91.45
2023-01-29T00:20:59.437Z,92.13
2023-01-29T00:23:27.204Z,92.10
2023-01-29T00:25:55.025Z,92.15
2023-01-29T00:28:22.815Z,92.31
2023-01-29T00:30:50.701Z,92.41
2023-01-29T00:33:18.248Z,92.61
2023-01-29T00:35:47.117Z,92.57
2023-01-29T00:38:14.929Z,93.05
2023-01-29T00:41:01.035Z,92.77
2023-01-29T00:43:47.062Z,92.74
2023-01-29T00:46:14.896Z,92.78
2023-01-29T00:48:42.503Z,92.45
2023-01-29T00:51:10.869Z,92.68
2023-01-29T00:53:38.492Z,92.59
2023-01-29T00:56:06.439Z,92.98
2023-01-29T00:58:36.810Z,92.60
2023-01-29T01:01:04.759Z,92.42
2023-01-29T01:03:35.395Z,92.83
2023-01-29T01:06:07.067Z,92.72
2023-01-29T01:08:53.002Z,92.73
2023-01-29T01:11:21.110Z,92.41
2023-01-29T01:13:48.634Z,92.29
2023-01-29T01:16:18.849Z,92.74
2023-01-29T01:18:46.383Z,92.63
2023-01-29T01:21:14.048Z,93.14
2023-01-29T01:23:41.575Z,93.52
2023-01-29T01:26:11.100Z,93.40
2023-01-29T01:28:39.706Z,93.70
2023-01-29T01:31:11.468Z,93.81
2023-01-29T01:33:39.266Z,94.55
2023-01-29T01:36:11.747Z,94.27
2023-01-29T01:38:45.362Z,94.95
2023-01-29T01:41:14.760Z,95.24
2023-01-29T01:43:58.292Z,95.16
2023-01-29T01:46:28.827Z,96.41
2023-01-29T01:48:59.392Z,97.17
2023-01-29T01:51:27.320Z,97.63
2023-01-29T01:54:09.971Z,97.90
2023-01-29T01:56:41.510Z,98.73
2023-01-29T01:59:18.897Z,98.57
2023-01-29T02:01:50.656Z,98.67
2023-01-29T02:04:39.816Z,99.02
2023-01-29T02:07:27.049Z,99.21
2023-01-29T02:10:12.962Z,100.00
2023-01-29T02:12:41.133Z,100.00
2023-01-29T02:15:09.867Z,100.00
2023-01-29T02:17:38.942Z,100.00
2023-01-29T02:20:10.067Z,100.00
2023-01-29T02:23:03.639Z,100.00
2023-01-29T02:26:05.599Z,100.00
2023-01-29T02:28:54.665Z,100.00
2023-01-29T02:31:29.547Z,100.00
2023-01-29T02:34:21.177Z,100.00
2023-01-29T02:37:03.546Z,100.00
2023-01-29T02:39:37.756Z,100.00
2023-01-29T02:42:28.089Z,100.00
2023-01-29T02:45:14.339Z,100.00
2023-01-29T02:47:47.836Z,100.00
2023-01-29T02:50:20.657Z,100.00
2023-01-29T02:53:01.745Z,100.00
2023-01-29T02:55:33.879Z,100.00
2023-01-29T02:58:07.798Z,100.00
2023-01-29T03:00:38.406Z,100.00
2023-01-29T03:03:19.771Z,99.51
2023-01-29T03:06:12.404Z,99.35
2023-01-29T03:08:43.223Z,99.65
2023-01-29T03:11:15.335Z,99.27
2023-01-29T03:13:52.953Z,98.94
2023-01-29T03:16:31.183Z,98.77
2023-01-29T03:19:17.437Z,98.88
2023-01-29T03:21:55.435Z,99.12
2023-01-29T08:08:28.091Z,93.00
2023-01-29T08:11:05.965Z,91.29
2023-01-29T08:13:33.927Z,90.97
2023-01-29T08:16:04.146Z,89.04
2023-01-29T08:18:32.917Z,88.39
2023-01-29T08:21:02.135Z,88.55
2023-01-29T08:23:32.146Z,87.63
2023-01-29T08:26:00.033Z,89.03
2023-01-29T08:28:27.779Z,87.36
2023-01-29T08:30:55.488Z,87.56
2023-01-29T08:33:38.087Z,87.34
2023-01-29T08:36:08.007Z,86.65
2023-01-29T08:38:36.502Z,87.31
2023-01-29T08:41:07.810Z,88.30
2023-01-29T08:43:40.022Z,88.46
2023-01-29T08:46:07.809Z,88.26
2023-01-29T08:48:35.465Z,88.88
2023-01-29T08:51:04.587Z,88.99
2023-01-29T08:53:32.548Z,86.87
2023-01-29T08:56:00.712Z,87.79
2023-01-29T08:58:28.246Z,87.96
2023-01-29T09:00:55.969Z,87.33
2023-01-29T09:03:24.629Z,87.50
2023-01-29T09:05:52.300Z,86.96
2023-01-29T09:08:20.501Z,87.93
2023-01-29T09:10:48.157Z,88.41
2023-01-29T09:13:15.768Z,87.85
2023-01-29T09:15:43.481Z,87.77
2023-01-29T09:18:11.180Z,87.19
2023-01-29T09:20:39.196Z,86.72
2023-01-29T09:23:07.708Z,86.48
2023-01-29T09:38:23.669Z,84.04
2023-01-29T09:41:09.461Z,84.09
2023-01-29T11:45:23.060Z,88.99
2023-01-29T11:47:53.010Z,88.33
2023-01-29T11:50:25.222Z,88.72
2023-01-29T11:52:52.781Z,87.71
2023-01-29T11:55:21.616Z,88.02
2023-01-29T11:58:02.147Z,87.66
2023-01-29T12:00:34.548Z,87.86
2023-01-29T12:03:24.891Z,88.54
2023-01-29T12:06:04.053Z,89.96
2023-01-29T12:08:36.701Z,89.05
2023-01-29T12:11:13.256Z,88.94
2023-01-29T12:13:43.454Z,88.80
2023-01-29T12:16:25.795Z,88.96
2023-01-29T12:19:07.524Z,88.88
2023-01-29T12:21:37.565Z,88.96
2023-01-29T12:24:21.650Z,88.11
2023-01-29T12:27:17.224Z,88.39
2023-01-29T12:29:57.117Z,88.67
2023-01-29T12:32:43.548Z,88.21
2023-01-29T12:35:11.165Z,87.57
2023-01-29T12:38:09.302Z,86.98
2023-01-29T12:41:21.783Z,87.20
2023-01-29T12:55:29.732Z,83.98
2023-01-29T12:57:58.905Z,85.25
2023-01-29T13:00:32.633Z,85.59
2023-01-29T13:03:22.071Z,84.94
2023-01-29T13:05:55.567Z,85.62
2023-01-29T13:08:32.939Z,86.84
2023-01-29T13:11:04.163Z,85.76
2023-01-29T13:13:54.042Z,86.17
2023-01-29T13:16:30.958Z,86.94
2023-01-29T13:19:00.119Z,86.18
2023-01-29T13:21:31.144Z,86.64
2023-01-29T13:24:02.665Z,86.54
2023-01-29T13:26:32.809Z,86.52
2023-01-29T13:29:01.666Z,87.63
2023-01-29T13:31:29.451Z,87.95
2023-01-29T13:34:14.235Z,87.11
2023-01-29T13:36:46.681Z,87.32
2023-01-29T13:39:27.388Z,88.64
2023-01-29T13:41:55.487Z,88.09
2023-01-29T13:44:24.341Z,87.90
2023-01-29T13:46:59.443Z,87.60
2023-01-29T13:49:32.153Z,87.83
2023-01-29T13:52:00.185Z,87.75
2023-01-29T13:54:28.206Z,88.87
2023-01-29T13:57:02.189Z,89.51
2023-01-29T13:59:51.023Z,90.01
2023-01-29T14:02:25.952Z,89.14
2023-01-29T14:05:31.440Z,88.92
2023-01-29T14:08:29.236Z,89.13
2023-01-29T14:11:15.425Z,89.27
2023-01-29T14:13:44.413Z,89.07
2023-01-29T14:16:12.738Z,88.89
2023-01-29T14:18:55.526Z,89.49
2023-01-29T14:21:25.495Z,89.59
2023-01-29T14:23:59.130Z,89.52
2023-01-29T14:26:35.117Z,89.23
2023-01-29T14:29:08.239Z,90.05
2023-01-29T14:31:41.828Z,90.05
2023-01-29T14:34:24.344Z,89.19
2023-01-29T14:36:55.715Z,89.51
2023-01-29T14:39:53.814Z,89.83
2023-01-29T14:42:21.323Z,89.04
2023-01-29T14:45:15.511Z,89.42
2023-01-29T14:47:46.419Z,88.60
2023-01-29T14:50:29.310Z,87.64
2023-01-29T14:53:24.652Z,87.95
2023-01-29T14:56:02.130Z,88.28
2023-01-29T14:58:42.934Z,87.44
2023-01-29T15:01:29.632Z,87.16
2023-01-29T15:04:04.144Z,87.90
2023-01-29T15:06:45.968Z,87.99
2023-01-29T15:09:16.665Z,87.73
2023-01-29T15:12:31.793Z,87.79
2023-01-29T15:15:12.312Z,87.07
2023-01-29T15:17:59.230Z,87.00
2023-01-29T15:20:32.040Z,87.31
2023-01-29T15:23:00.995Z,88.02
2023-01-29T15:25:29.794Z,87.19
2023-01-29T15:27:57.352Z,86.85
2023-01-29T15:30:29.378Z,87.92
2023-01-29T15:32:56.957Z,87.81
2023-01-29T15:35:43.027Z,88.38
2023-01-29T15:38:19.449Z,88.21
2023-01-29T15:41:03.846Z,88.49
2023-01-29T15:43:35.300Z,88.47
2023-01-29T15:46:10.829Z,88.60
2023-01-29T15:48:40.686Z,88.43
2023-01-29T15:51:08.801Z,89.39
2023-01-29T15:53:38.773Z,89.12
2023-01-29T15:56:10.682Z,89.07
2023-01-29T15:58:38.594Z,88.74
2023-01-29T16:01:06.552Z,89.81
2023-01-29T16:03:34.391Z,89.84
2023-01-29T16:06:02.348Z,89.72
2023-01-29T16:08:30.091Z,89.13
2023-01-29T16:11:05.164Z,89.90
2023-01-29T16:13:37.153Z,90.14
2023-01-29T16:16:16.420Z,90.05
2023-01-29T16:18:58.956Z,90.28
2023-01-29T16:21:37.654Z,90.11
2023-01-29T16:24:16.050Z,90.81
2023-01-29T16:26:45.260Z,90.18
2023-01-29T16:29:17.452Z,89.70
2023-01-29T16:31:45.944Z,89.25
2023-01-29T16:34:27.849Z,89.21
2023-01-29T16:36:55.724Z,89.60
2023-01-29T16:39:28.297Z,89.50
2023-01-29T16:42:12.414Z,89.70
2023-01-29T16:44:40.290Z,89.07
2023-01-29T16:47:23.998Z,88.35
2023-01-29T16:49:55.971Z,89.34
2023-01-29T16:52:31.536Z,89.00
2023-01-29T16:55:00.912Z,88.59
2023-01-29T16:57:31.678Z,88.84
2023-01-29T17:00:03.804Z,88.05
2023-01-29T17:02:35.657Z,87.65
2023-01-29T17:05:10.990Z,88.19
2023-01-29T17:07:39.909Z,87.94
2023-01-29T17:10:07.879Z,86.95
2023-01-29T17:12:38.903Z,86.10
2023-01-29T17:15:29.313Z,85.60
2023-01-29T17:17:57.119Z,84.93
2023-01-29T17:20:24.794Z,85.07
2023-01-29T17:22:52.805Z,84.90
2023-01-29T17:25:24.584Z,84.68
2023-01-29T17:27:52.647Z,84.95
2023-01-29T17:30:21.784Z,84.24
2023-01-29T17:32:49.499Z,83.68
2023-01-29T17:35:17.656Z,83.47
2023-01-29T17:37:45.749Z,82.38
2023-01-29T17:40:27.657Z,82.41
2023-01-29T17:42:55.454Z,81.41
2023-01-29T17:45:23.212Z,81.44
2023-01-29T17:47:54.067Z,81.57
2023-01-29T17:50:23.632Z,81.37
2023-01-29T17:52:51.191Z,81.50
2023-01-29T17:55:19.341Z,81.76
2023-01-29T17:57:47.531Z,80.73
2023-01-29T18:00:15.542Z,81.45
2023-01-29T18:02:47.055Z,82.15
2023-01-29T18:05:16.095Z,82.05
2023-01-29T18:07:44.976Z,81.47
2023-01-29T18:10:15.495Z,81.44
2023-01-29T18:12:43.137Z,81.39
2023-01-29T18:15:11.351Z,80.89
2023-01-29T18:17:39.838Z,81.08
2023-01-29T18:20:22.111Z,80.10
2023-01-29T18:22:49.698Z,80.55
2023-01-29T18:25:17.778Z,80.26
2023-01-29T18:27:46.263Z,80.37
2023-01-29T18:30:14.365Z,80.67
2023-01-29T18:32:42.405Z,80.26
2023-01-29T18:35:10.211Z,80.46
2023-01-29T18:37:38.112Z,80.55
2023-01-29T18:40:06.831Z,80.28
2023-01-29T18:42:36.183Z,80.02
2023-01-29T18:45:04.382Z,79.70
2023-01-29T18:47:32.134Z,80.21
2023-01-29T18:50:00.300Z,79.98
2023-01-29T18:52:27.843Z,79.18
2023-01-29T18:54:55.736Z,79.40
2023-01-29T18:58:28.793Z,79.58
2023-01-29T19:00:11.497Z,79.30
2023-01-29T19:02:39.088Z,79.60
2023-01-29T19:05:06.992Z,79.55
2023-01-29T19:07:40.130Z,79.72
2023-01-29T19:10:09.562Z,80.58
2023-01-29T19:12:41.505Z,79.52
2023-01-29T19:15:09.789Z,79.94
2023-01-29T19:17:38.385Z,80.14
2023-01-29T19:20:06.648Z,80.60
2023-01-29T19:22:34.929Z,81.18
2023-01-29T19:25:02.653Z,80.32
2023-01-29T19:27:30.700Z,80.08
2023-01-29T19:29:59.632Z,80.31
2023-01-29T19:32:29.015Z,80.11
2023-01-29T19:34:57.941Z,80.30
2023-01-29T19:37:25.648Z,80.25
2023-01-29T19:39:53.992Z,80.75
2023-01-29T19:42:21.670Z,81.40
2023-01-29T19:44:51.184Z,81.28
2023-01-29T19:47:18.789Z,81.04
2023-01-29T19:49:46.709Z,81.18
2023-01-29T19:52:49.763Z,81.87
2023-01-29T19:55:19.056Z,81.29
2023-01-29T19:57:47.108Z,81.96
2023-01-29T20:00:15.678Z,81.66
2023-01-29T20:02:46.308Z,81.69
2023-01-29T20:05:14.628Z,81.77
2023-01-29T20:07:42.794Z,81.52
2023-01-29T20:10:15.372Z,80.93
2023-01-29T20:12:45.007Z,80.32
2023-01-29T20:15:13.559Z,81.57
2023-01-29T20:17:41.346Z,81.67
2023-01-29T20:20:09.872Z,80.46
2023-01-29T20:22:37.536Z,79.72
2023-01-29T20:25:07.710Z,80.08
2023-01-29T20:27:35.903Z,79.89
2023-01-29T20:30:03.844Z,80.66
2023-01-29T20:32:33.061Z,81.04
2023-01-29T20:35:00.644Z,80.97
2023-01-29T20:37:28.274Z,80.78
2023-01-29T20:39:56.103Z,79.93
2023-01-29T20:42:24.372Z,79.80
2023-01-29T20:44:51.960Z,79.70
2023-01-29T20:47:19.709Z,79.65
2023-01-29T20:49:50.543Z,79.81
2023-01-29T20:52:18.303Z,79.52
2023-01-29T20:54:46.173Z,79.73
2023-01-29T20:57:15.009Z,79.49
2023-01-29T20:59:42.849Z,79.92
2023-01-29T21:02:12.014Z,80.06
2023-01-29T21:04:41.081Z,80.28
2023-01-29T21:07:12.767Z,80.27
2023-01-29T21:09:42.128Z,80.33
2023-01-29T21:12:10.799Z,80.46
2023-01-29T21:14:38.718Z,79.96
2023-01-29T21:17:09.390Z,79.54
2023-01-29T21:19:36.967Z,78.93
2023-01-29T21:22:04.895Z,79.40
2023-01-29T21:24:33.855Z,80.10
2023-01-29T21:27:01.803Z,80.24
2023-01-29T21:29:29.776Z,79.49
2023-01-29T21:31:58.345Z,79.54
2023-01-29T21:34:26.224Z,79.52
2023-01-29T21:36:53.913Z,80.20
2023-01-29T21:39:24.441Z,79.90
2023-01-29T21:42:10.522Z,79.60
2023-01-29T21:44:39.731Z,78.73
2023-01-29T21:47:12.563Z,79.10
2023-01-29T21:49:43.932Z,79.45
2023-01-29T21:52:12.323Z,79.55
2023-01-29T21:54:40.857Z,79.66
2023-01-29T21:57:12.729Z,79.59
2023-01-29T21:59:40.332Z,79.40
2023-01-29T22:02:12.881Z,79.31
2023-01-29T22:04:42.166Z,79.75
2023-01-29T22:07:11.312Z,80.42
